Plum Grove, Texas
Current Conditions -  °F | °C
As of 2:35 PM on Thursday 23 Oct 2014 (Local Time) from K6R3 Reporting Station
Clear Clear  
Wind Chill: 76°   Ceiling: Unl
Heat Index: 78°   Visibility: 7mi
Dew Point: 57°   Wind: 5mph
Humidity: 52%   Direction: 90°E
Pressure: 30.09"   Gusts: NA
Location:  30.2945°N, 94.9711°W
Report Text: K6R3 231935Z AUTO 09004KT 7SM CLR 25/14 A3009 RMK AO2 T02470141
Loading
Personal Weather Stations






























Interactive Weather Map
Tropical Storm Tracking
New forecast layout! Learn more

10-Day Weather Forecast

Advertisements
Track Severe Weather on mobile